createdAt,value
2023-05-25T00:02:27.080Z,101203.22
2023-05-25T00:04:54.709Z,101203.56
2023-05-25T00:07:22.265Z,101204.06
2023-05-25T00:09:49.830Z,101208.84
2023-05-25T00:12:17.369Z,101206.13
2023-05-25T00:14:44.936Z,101209.16
2023-05-25T00:17:12.517Z,101206.28
2023-05-25T00:19:42.348Z,101212.56
2023-05-25T00:22:10.499Z,101210.03
2023-05-25T00:24:38.071Z,101204.75
2023-05-25T00:27:07.023Z,101210.19
2023-05-25T00:29:34.570Z,101205.94
2023-05-25T00:32:02.150Z,101218.00
2023-05-25T00:34:29.713Z,101219.53
2023-05-25T00:36:57.283Z,101217.16
2023-05-25T00:39:24.990Z,101227.22
2023-05-25T00:41:52.576Z,101220.03
2023-05-25T00:44:21.698Z,101213.41
2023-05-25T00:46:49.814Z,101218.00
2023-05-25T00:49:17.458Z,101218.84
2023-05-25T00:51:46.595Z,101219.72
2023-05-25T00:54:15.981Z,101226.50
2023-05-25T00:56:43.572Z,101222.75
2023-05-25T00:59:11.241Z,101221.06
2023-05-25T01:01:40.087Z,101228.72
2023-05-25T01:04:08.184Z,101224.63
2023-05-25T01:06:35.792Z,101224.13
2023-05-25T01:09:03.507Z,101219.53
2023-05-25T01:11:31.134Z,101217.66
2023-05-25T01:13:58.709Z,101223.94
2023-05-25T01:16:26.505Z,101222.09
2023-05-25T01:18:54.179Z,101227.34
2023-05-25T01:21:22.054Z,101222.09
2023-05-25T01:23:49.705Z,101219.53
2023-05-25T01:26:17.284Z,101216.94
2023-05-25T01:28:46.468Z,101222.41
2023-05-25T01:31:14.052Z,101217.13
2023-05-25T01:33:41.652Z,101208.97
2023-05-25T01:36:09.228Z,101216.28
2023-05-25T01:38:36.837Z,101223.94
2023-05-25T01:41:04.424Z,101216.28
2023-05-25T01:43:31.977Z,101221.56
2023-05-25T01:45:59.705Z,101219.00
2023-05-25T01:48:27.388Z,101221.03
2023-05-25T01:50:55.026Z,101217.28
2023-05-25T01:53:22.734Z,101226.47
2023-05-25T01:55:50.729Z,101214.38
2023-05-25T01:58:18.333Z,101222.22
2023-05-25T02:00:46.011Z,101221.19
2023-05-25T02:03:14.025Z,101222.22
2023-05-25T02:05:41.928Z,101221.88
2023-05-25T02:08:09.618Z,101223.06
2023-05-25T02:10:37.187Z,101224.75
2023-05-25T02:13:04.763Z,101217.75
2023-05-25T02:15:32.351Z,101222.53
2023-05-25T02:18:00.114Z,101217.94
2023-05-25T02:20:28.277Z,101222.53
2023-05-25T02:22:56.019Z,101223.06
2023-05-25T02:25:23.586Z,101218.47
2023-05-25T02:27:51.260Z,101219.63
2023-05-25T02:30:18.986Z,101220.47
2023-05-25T02:32:46.673Z,101215.69
2023-05-25T02:35:14.413Z,101214.38
2023-05-25T02:37:41.988Z,101212.97
2023-05-25T02:40:10.768Z,101213.69
2023-05-25T02:42:38.368Z,101216.41
2023-05-25T02:45:06.507Z,101207.06
2023-05-25T02:47:34.154Z,101212.50
2023-05-25T02:50:01.758Z,101212.81
2023-05-25T02:52:31.797Z,101198.53
2023-05-25T02:54:59.360Z,101207.69
2023-05-25T02:57:26.951Z,101211.28
2023-05-25T02:59:54.500Z,101212.81
2023-05-25T03:02:25.649Z,101206.00
2023-05-25T03:04:54.148Z,101209.41
2023-05-25T03:07:21.761Z,101213.13
2023-05-25T03:09:49.313Z,101220.31
2023-05-25T03:12:17.183Z,101211.28
2023-05-25T03:14:44.798Z,101217.25
2023-05-25T03:17:12.443Z,101216.88
2023-05-25T03:19:40.029Z,101218.56
2023-05-25T03:22:08.634Z,101226.59
2023-05-25T03:24:36.264Z,101235.94
2023-05-25T03:27:03.858Z,101235.94
2023-05-25T03:29:31.436Z,101236.66
2023-05-25T03:31:59.007Z,101235.25
2023-05-25T03:34:26.677Z,101233.22
2023-05-25T03:36:55.092Z,101238.66
2023-05-25T03:39:23.072Z,101236.97
2023-05-25T03:41:51.180Z,101243.97
2023-05-25T03:44:18.787Z,101243.97
2023-05-25T03:46:46.434Z,101240.91
2023-05-25T03:49:14.526Z,101241.25
2023-05-25T03:51:42.070Z,101251.25
2023-05-25T03:54:09.654Z,101258.75
2023-05-25T03:56:37.216Z,101260.78
2023-05-25T03:59:04.808Z,101259.28
2023-05-25T04:01:32.408Z,101272.41
2023-05-25T04:04:00.102Z,101264.06
2023-05-25T04:06:30.051Z,101265.78
2023-05-25T04:08:58.152Z,101274.66
2023-05-25T04:11:25.824Z,101282.66
2023-05-25T04:13:53.684Z,101282.84
2023-05-25T04:16:23.560Z,101289.81
2023-05-25T04:18:51.176Z,101294.09
2023-05-25T04:21:18.730Z,101287.78
2023-05-25T04:23:46.316Z,101288.66
2023-05-25T04:26:15.746Z,101287.47
2023-05-25T04:28:43.383Z,101299.72
2023-05-25T04:31:12.957Z,101301.13
2023-05-25T04:33:40.754Z,101299.06
2023-05-25T04:36:08.784Z,101298.78
2023-05-25T04:38:36.489Z,101290.41
2023-05-25T04:41:04.076Z,101296.41
2023-05-25T04:43:31.654Z,101294.38
2023-05-25T04:45:59.804Z,101287.44
2023-05-25T04:48:28.461Z,101281.31
2023-05-25T04:50:56.785Z,101283.19
2023-05-25T04:53:24.347Z,101292.53
2023-05-25T04:55:51.994Z,101287.53
2023-05-25T04:58:19.584Z,101289.56
2023-05-25T05:00:47.241Z,101286.16
2023-05-25T05:03:14.850Z,101288.53
2023-05-25T05:05:43.871Z,101282.41
2023-05-25T05:08:11.648Z,101287.34
2023-05-25T05:10:39.249Z,101282.41
2023-05-25T05:13:07.132Z,101290.75
2023-05-25T05:15:34.669Z,101296.06
2023-05-25T05:18:02.310Z,101295.16
2023-05-25T05:20:29.977Z,101299.13
2023-05-25T05:22:57.573Z,101300.84
2023-05-25T05:25:25.132Z,101299.69
2023-05-25T05:27:52.674Z,101306.53
2023-05-25T05:30:20.222Z,101310.09
2023-05-25T05:32:47.829Z,101308.75
2023-05-25T05:35:15.509Z,101318.66
2023-05-25T05:37:44.014Z,101322.59
2023-05-25T05:40:11.906Z,101326.84
2023-05-25T05:42:39.433Z,101333.66
2023-05-25T05:45:06.995Z,101329.59
2023-05-25T05:47:34.582Z,101331.84
2023-05-25T05:50:02.137Z,101330.47
2023-05-25T05:52:29.678Z,101333.75
2023-05-25T05:54:57.205Z,101341.41
2023-05-25T05:57:24.731Z,101338.19
2023-05-25T05:59:52.266Z,101333.94
2023-05-25T06:02:19.901Z,101338.91
2023-05-25T06:04:47.845Z,101341.63
2023-05-25T06:07:15.462Z,101344.56
2023-05-25T06:09:43.045Z,101347.31
2023-05-25T06:12:10.611Z,101338.28
2023-05-25T06:14:38.190Z,101341.53
2023-05-25T06:17:05.916Z,101344.81
2023-05-25T06:19:33.511Z,101336.09
2023-05-25T06:22:01.310Z,101343.78
2023-05-25T06:24:28.895Z,101343.44
2023-05-25T06:26:56.442Z,101342.44
2023-05-25T06:29:24.011Z,101332.88
2023-05-25T06:31:51.639Z,101333.22
2023-05-25T06:34:19.308Z,101335.44
2023-05-25T06:36:47.734Z,101334.25
2023-05-25T06:39:15.391Z,101339.34
2023-05-25T06:41:42.998Z,101343.47
2023-05-25T06:44:11.064Z,101340.38
2023-05-25T06:46:39.282Z,101332.53
2023-05-25T06:49:06.945Z,101341.91
2023-05-25T06:51:34.516Z,101339.03
2023-05-25T06:54:02.190Z,101340.72
2023-05-25T06:56:29.844Z,101339.53
2023-05-25T06:58:57.436Z,101349.94
2023-05-25T07:01:25.025Z,101343.94
2023-05-25T07:03:52.664Z,101347.38
2023-05-25T07:06:20.302Z,101350.28
2023-05-25T07:08:47.899Z,101339.16
2023-05-25T07:11:15.727Z,101346.38
2023-05-25T07:13:44.338Z,101344.13
2023-05-25T07:16:12.041Z,101344.47
2023-05-25T07:18:39.652Z,101344.13
2023-05-25T07:21:09.938Z,101351.47
2023-05-25T07:23:37.532Z,101347.53
2023-05-25T07:26:05.967Z,101339.84
2023-05-25T07:28:33.921Z,101340.72
2023-05-25T07:31:01.601Z,101345.63
2023-05-25T07:33:29.239Z,101346.16
2023-05-25T07:35:56.898Z,101342.22
2023-05-25T07:38:24.498Z,101338.44
2023-05-25T07:40:52.602Z,101342.03
2023-05-25T07:43:20.235Z,101337.59
2023-05-25T07:45:47.798Z,101329.72
2023-05-25T07:48:15.573Z,101346.97
2023-05-25T07:50:43.324Z,101346.09
2023-05-25T07:53:10.896Z,101343.03
2023-05-25T07:55:38.480Z,101341.00
2023-05-25T07:58:07.456Z,101340.13
2023-05-25T08:00:35.053Z,101335.50
2023-05-25T08:03:03.626Z,101346.28
2023-05-25T08:05:31.346Z,101349.00
2023-05-25T08:07:58.956Z,101351.41
2023-05-25T08:10:31.272Z,101348.84
2023-05-25T08:12:59.000Z,101359.28
2023-05-25T08:15:26.663Z,101352.59
2023-05-25T08:17:54.238Z,101357.41
2023-05-25T08:20:21.934Z,101348.34
2023-05-25T08:22:49.857Z,101355.19
2023-05-25T08:25:17.410Z,101346.09
2023-05-25T08:27:44.977Z,101354.63
2023-05-25T08:30:12.595Z,101358.22
2023-05-25T08:32:40.138Z,101359.06
2023-05-25T08:35:08.031Z,101358.41
2023-05-25T08:37:35.638Z,101360.59
2023-05-25T08:40:03.279Z,101360.25
2023-05-25T08:42:30.840Z,101360.78
2023-05-25T08:44:58.885Z,101373.25
2023-05-25T08:47:26.577Z,101373.75
2023-05-25T08:49:54.329Z,101376.84
2023-05-25T08:52:22.076Z,101377.69
2023-05-25T08:54:49.777Z,101368.78
2023-05-25T08:57:17.346Z,101376.00
2023-05-25T08:59:45.051Z,101366.25
2023-05-25T09:02:12.733Z,101376.84
2023-05-25T09:04:40.593Z,101372.06
2023-05-25T09:07:10.869Z,101378.16
2023-05-25T09:09:39.556Z,101371.00
2023-05-25T09:12:07.165Z,101374.47
2023-05-25T09:14:34.700Z,101381.09
2023-05-25T09:17:02.341Z,101381.25
2023-05-25T09:19:29.919Z,101380.25
2023-05-25T09:22:10.728Z,101378.88
2023-05-25T09:24:44.051Z,101381.63
2023-05-25T09:27:11.656Z,101377.53
2023-05-25T09:29:39.263Z,101374.91
2023-05-25T09:32:07.089Z,101382.63
2023-05-25T09:34:34.799Z,101384.34
2023-05-25T09:37:02.495Z,101382.09
2023-05-25T09:39:30.200Z,101389.47
2023-05-25T09:41:57.776Z,101383.63
2023-05-25T09:44:25.381Z,101382.63
2023-05-25T09:46:52.952Z,101390.31
2023-05-25T09:49:20.934Z,101387.41
2023-05-25T09:51:48.563Z,101378.38
2023-05-25T09:54:16.163Z,101379.91
2023-05-25T09:56:43.773Z,101381.22
2023-05-25T09:59:11.348Z,101383.97
2023-05-25T10:01:39.327Z,101379.91
2023-05-25T10:04:07.714Z,101385.38
2023-05-25T10:06:35.294Z,101389.44
2023-05-25T10:09:05.010Z,101388.44
2023-05-25T10:11:32.755Z,101386.06
2023-05-25T10:14:03.800Z,101390.47
2023-05-25T10:16:31.650Z,101380.56
2023-05-25T10:18:59.228Z,101378.50
2023-05-25T10:21:26.816Z,101385.16
2023-05-25T10:23:54.393Z,101386.06
2023-05-25T10:26:22.662Z,101385.00
2023-05-25T10:28:50.287Z,101379.38
2023-05-25T10:31:18.006Z,101378.50
2023-05-25T10:33:49.172Z,101380.25
2023-05-25T10:36:19.806Z,101382.63
2023-05-25T10:38:47.463Z,101381.94
2023-05-25T10:41:15.973Z,101379.91
2023-05-25T10:43:44.747Z,101381.94
2023-05-25T10:46:15.025Z,101383.63
2023-05-25T10:48:42.613Z,101381.09
2023-05-25T10:51:11.848Z,101383.31
2023-05-25T10:53:39.761Z,101370.31
2023-05-25T10:56:07.402Z,101372.06
2023-05-25T10:58:35.110Z,101373.22
2023-05-25T11:01:02.744Z,101372.38
2023-05-25T11:03:30.396Z,101376.47
2023-05-25T11:05:57.947Z,101366.38
2023-05-25T11:08:25.482Z,101365.03
2023-05-25T11:10:53.926Z,101371.84
2023-05-25T11:13:21.483Z,101369.31
2023-05-25T11:15:49.046Z,101364.69
2023-05-25T11:18:16.647Z,101365.69
2023-05-25T11:20:44.415Z,101358.38
2023-05-25T11:23:12.047Z,101362.13
2023-05-25T11:25:39.709Z,101361.28
2023-05-25T11:28:07.569Z,101351.88
2023-05-25T11:30:35.149Z,101350.34
2023-05-25T11:33:03.180Z,101362.47
2023-05-25T11:35:33.629Z,101360.78
2023-05-25T11:38:02.163Z,101348.13
2023-05-25T11:40:29.687Z,101353.59
2023-05-25T11:43:00.514Z,101344.38
2023-05-25T11:45:28.411Z,101357.00
2023-05-25T11:47:57.028Z,101343.34
2023-05-25T11:50:24.604Z,101345.03
2023-05-25T11:52:52.172Z,101344.72
2023-05-25T11:55:19.699Z,101344.72
2023-05-25T11:57:47.255Z,101346.25
2023-05-25T12:00:14.900Z,101344.88
2023-05-25T12:02:43.520Z,101342.50
2023-05-25T12:05:12.005Z,101341.66
2023-05-25T12:07:39.614Z,101348.13
2023-05-25T12:10:07.369Z,101345.22
2023-05-25T12:12:34.950Z,101345.91
2023-05-25T12:15:02.536Z,101337.88
2023-05-25T12:17:30.270Z,101325.91
2023-05-25T12:19:57.980Z,101334.28
2023-05-25T12:22:25.588Z,101320.78
2023-05-25T12:24:53.185Z,101332.88
2023-05-25T12:27:20.951Z,101327.78
2023-05-25T12:29:48.538Z,101325.56
2023-05-25T12:32:16.188Z,101322.84
2023-05-25T12:34:43.806Z,101320.44
2023-05-25T12:37:11.366Z,101320.78
2023-05-25T12:39:39.809Z,101322.50
2023-05-25T12:42:07.652Z,101312.59
2023-05-25T12:44:35.232Z,101314.66
2023-05-25T12:47:03.066Z,101320.78
2023-05-25T12:49:30.846Z,101315.31
2023-05-25T12:51:58.421Z,101307.78
2023-05-25T12:54:26.120Z,101313.47
2023-05-25T12:56:53.694Z,101313.78
2023-05-25T12:59:21.256Z,101308.31
2023-05-25T13:01:48.815Z,101317.06
2023-05-25T13:04:16.394Z,101313.47
2023-05-25T13:06:43.934Z,101303.72
2023-05-25T13:09:11.558Z,101300.16
2023-05-25T13:11:39.215Z,101300.00
2023-05-25T13:14:06.859Z,101299.16
2023-05-25T13:16:34.453Z,101291.09
2023-05-25T13:19:02.012Z,101283.06
2023-05-25T13:21:29.566Z,101299.47
2023-05-25T13:23:57.245Z,101289.75
2023-05-25T13:26:25.657Z,101275.06
2023-05-25T13:28:53.221Z,101286.00
2023-05-25T13:31:20.812Z,101282.06
2023-05-25T13:33:48.366Z,101296.56
2023-05-25T13:36:15.946Z,101296.09
2023-05-25T13:38:43.514Z,101286.16
2023-05-25T13:41:11.373Z,101288.53
2023-05-25T13:43:38.919Z,101281.53
2023-05-25T13:46:06.478Z,101286.00
2023-05-25T13:48:34.058Z,101278.16
2023-05-25T13:51:03.290Z,101275.59
2023-05-25T13:53:31.593Z,101286.34
2023-05-25T13:58:41.992Z,101277.13
2023-05-25T14:01:09.637Z,101268.06
2023-05-25T14:03:37.415Z,101276.06
2023-05-25T14:06:05.654Z,101277.13
2023-05-25T14:08:33.180Z,101267.03
2023-05-25T14:11:00.797Z,101269.75
2023-05-25T14:13:28.359Z,101264.13
2023-05-25T14:15:55.953Z,101265.16
2023-05-25T14:18:23.594Z,101261.41
2023-05-25T14:20:51.164Z,101258.84
2023-05-25T14:23:19.280Z,101265.34
2023-05-25T14:25:48.605Z,101266.19
2023-05-25T14:28:16.184Z,101261.56
2023-05-25T14:30:43.736Z,101260.72
2023-05-25T14:33:14.041Z,101250.63
2023-05-25T14:35:42.562Z,101251.47
2023-05-25T14:38:10.453Z,101264.81
2023-05-25T14:40:38.018Z,101258.66
2023-05-25T14:43:05.588Z,101260.56
2023-05-25T14:45:33.157Z,101263.09
2023-05-25T14:48:15.210Z,101258.66
2023-05-25T14:50:44.586Z,101249.25
2023-05-25T14:53:12.487Z,101254.53
2023-05-25T14:55:41.298Z,101259.16
2023-05-25T14:58:08.892Z,101254.53
2023-05-25T15:00:36.498Z,101250.09
2023-05-25T15:03:04.168Z,101257.47
2023-05-25T15:05:31.805Z,101265.47
2023-05-25T15:07:59.915Z,101265.47
2023-05-25T15:10:27.482Z,101256.25
2023-05-25T15:12:55.048Z,101258.63
2023-05-25T15:15:22.613Z,101260.00
2023-05-25T15:17:50.208Z,101262.72
2023-05-25T15:20:17.917Z,101253.31
2023-05-25T15:22:45.955Z,101257.59
2023-05-25T15:25:18.898Z,101257.59
2023-05-25T15:27:51.013Z,101266.47
2023-05-25T15:30:19.280Z,101259.66
2023-05-25T15:32:46.893Z,101252.47
2023-05-25T15:35:14.481Z,101248.06
2023-05-25T15:37:43.058Z,101252.84
2023-05-25T15:40:14.612Z,101247.38
2023-05-25T15:42:43.059Z,101251.78
2023-05-25T15:45:10.678Z,101240.22
2023-05-25T15:47:38.321Z,101237.47
2023-05-25T15:50:10.673Z,101236.81
2023-05-25T15:52:38.243Z,101236.81
2023-05-25T15:55:05.871Z,101233.56
2023-05-25T15:57:33.564Z,101235.06
2023-05-25T16:00:01.206Z,101227.91
2023-05-25T16:02:28.848Z,101220.09
2023-05-25T16:04:56.547Z,101224.16
2023-05-25T16:07:24.173Z,101217.66
2023-05-25T16:09:51.808Z,101225.03
2023-05-25T16:12:19.543Z,101222.44
2023-05-25T16:14:47.135Z,101225.38
2023-05-25T16:17:15.475Z,101228.28
2023-05-25T16:19:43.468Z,101218.34
2023-05-25T16:22:11.231Z,101226.56
2023-05-25T16:24:40.363Z,101229.13
2023-05-25T16:27:08.494Z,101219.25
2023-05-25T16:29:36.233Z,101227.44
2023-05-25T16:32:10.798Z,101226.56
2023-05-25T16:34:38.423Z,101215.81
2023-05-25T16:37:06.019Z,101225.72
2023-05-25T16:39:33.863Z,101226.75
2023-05-25T16:42:02.439Z,101224.88
2023-05-25T16:44:30.152Z,101219.41
2023-05-25T16:46:57.763Z,101223.19
2023-05-25T16:49:25.386Z,101224.03
2023-05-25T16:51:53.157Z,101220.44
2023-05-25T16:54:20.848Z,101229.50
2023-05-25T16:56:48.575Z,101221.44
2023-05-25T16:59:16.153Z,101218.03
2023-05-25T17:01:43.849Z,101218.22
2023-05-25T17:04:11.605Z,101214.47
2023-05-25T17:06:39.215Z,101216.34
2023-05-25T17:09:21.374Z,101216.84
2023-05-25T17:12:01.979Z,101219.56
2023-05-25T17:14:52.877Z,101223.50
2023-05-25T17:17:20.653Z,101212.56
2023-05-25T17:19:48.342Z,101226.44
2023-05-25T17:22:16.166Z,101228.97
2023-05-25T17:24:43.842Z,101228.13
2023-05-25T17:27:11.524Z,101230.69
2023-05-25T17:29:39.190Z,101228.81
2023-05-25T17:32:07.007Z,101230.69
2023-05-25T17:34:34.610Z,101227.28
2023-05-25T17:37:02.150Z,101230.00
2023-05-25T17:39:29.830Z,101228.97
2023-05-25T17:41:57.954Z,101228.13
2023-05-25T17:44:26.096Z,101238.22
2023-05-25T17:46:53.718Z,101232.75
2023-05-25T17:49:23.042Z,101234.78
2023-05-25T17:51:50.675Z,101240.25
2023-05-25T17:54:18.542Z,101243.88
2023-05-25T17:56:46.459Z,101250.19
2023-05-25T17:59:14.055Z,101242.34
2023-05-25T18:01:42.032Z,101239.78
2023-05-25T18:04:10.233Z,101247.13
2023-05-25T18:06:38.071Z,101238.09
2023-05-25T18:09:06.494Z,101237.22
2023-05-25T18:11:36.776Z,101243.53
2023-05-25T18:14:05.477Z,101240.28
2023-05-25T18:16:33.632Z,101241.13
2023-05-25T18:19:02.603Z,101245.06
2023-05-25T18:21:30.166Z,101243.03
2023-05-25T18:23:57.869Z,101243.03
2023-05-25T18:26:25.487Z,101242.34
2023-05-25T18:28:53.066Z,101247.81
2023-05-25T18:31:20.945Z,101253.59
2023-05-25T18:33:48.706Z,101258.09
2023-05-25T18:36:16.302Z,101259.41
2023-05-25T18:38:44.040Z,101262.16
2023-05-25T18:41:11.656Z,101256.53
2023-05-25T18:43:39.292Z,101263.56
2023-05-25T18:46:07.035Z,101260.09
2023-05-25T18:48:34.936Z,101256.53
2023-05-25T18:51:02.911Z,101257.53
2023-05-25T18:53:30.653Z,101261.78
2023-05-25T18:55:58.441Z,101259.91
2023-05-25T18:58:28.238Z,101259.91
2023-05-25T19:00:55.912Z,101262.84
2023-05-25T19:03:23.636Z,101267.63
2023-05-25T19:05:51.260Z,101273.06
2023-05-25T19:08:18.898Z,101290.66
2023-05-25T19:10:46.540Z,101280.44
2023-05-25T19:13:14.112Z,101278.72
2023-05-25T19:15:41.733Z,101284.38
2023-05-25T19:18:09.618Z,101287.44
2023-05-25T19:20:37.305Z,101286.41
2023-05-25T19:23:04.941Z,101296.28
2023-05-25T19:25:32.516Z,101302.81
2023-05-25T19:28:00.650Z,101304.00
2023-05-25T19:30:28.306Z,101314.06
2023-05-25T19:32:55.959Z,101301.63
2023-05-25T19:35:24.164Z,101314.25
2023-05-25T19:37:52.074Z,101319.03
2023-05-25T19:40:19.726Z,101322.44
2023-05-25T19:42:47.469Z,101316.97
2023-05-25T19:45:15.053Z,101322.63
2023-05-25T19:47:42.626Z,101321.59
2023-05-25T19:50:10.887Z,101319.69
2023-05-25T19:52:38.703Z,101319.69
2023-05-25T19:55:06.394Z,101322.44
2023-05-25T19:57:33.958Z,101323.97
2023-05-25T20:00:01.553Z,101324.16
2023-05-25T20:02:29.183Z,101321.59
2023-05-25T20:04:56.846Z,101327.75
2023-05-25T20:07:24.799Z,101325.19
2023-05-25T20:09:52.436Z,101329.09
2023-05-25T20:12:21.745Z,101326.56
2023-05-25T20:14:49.327Z,101334.06
2023-05-25T20:17:17.055Z,101330.50
2023-05-25T20:19:44.734Z,101329.63
2023-05-25T20:22:12.297Z,101325.34
2023-05-25T20:24:40.059Z,101328.09
2023-05-25T20:27:07.623Z,101332.88
2023-05-25T20:29:35.201Z,101338.34
2023-05-25T20:32:03.226Z,101340.38
2023-05-25T20:34:30.937Z,101333.19
2023-05-25T20:36:58.731Z,101341.41
2023-05-25T20:39:26.484Z,101340.75
2023-05-25T20:41:54.039Z,101343.47
2023-05-25T20:44:21.803Z,101346.53
2023-05-25T20:46:49.378Z,101343.13
2023-05-25T20:49:16.918Z,101346.00
2023-05-25T20:51:49.899Z,101347.91
2023-05-25T20:54:17.650Z,101347.91
2023-05-25T20:56:48.192Z,101358.97
2023-05-25T20:59:15.992Z,101350.63
2023-05-25T21:01:44.195Z,101351.81
2023-05-25T21:04:11.834Z,101365.63
2023-05-25T21:06:39.715Z,101358.63
2023-05-25T21:09:07.384Z,101356.09
2023-05-25T21:11:35.056Z,101362.56
2023-05-25T21:14:03.270Z,101356.44
2023-05-25T21:16:30.945Z,101358.28
2023-05-25T21:18:58.571Z,101364.63
2023-05-25T21:21:27.987Z,101364.94
2023-05-25T21:23:55.877Z,101366.81
2023-05-25T21:26:23.457Z,101367.31
2023-05-25T21:28:51.096Z,101368.34
2023-05-25T21:31:20.308Z,101363.75
2023-05-25T21:33:47.922Z,101363.59
2023-05-25T21:36:15.490Z,101360.16
2023-05-25T21:38:43.134Z,101367.31
2023-05-25T21:41:10.758Z,101361.53
2023-05-25T21:43:38.354Z,101368.00
2023-05-25T21:46:05.953Z,101355.56
2023-05-25T21:48:33.523Z,101361.34
2023-05-25T21:51:01.109Z,101358.97
2023-05-25T21:53:28.735Z,101361.84
2023-05-25T21:55:56.403Z,101370.03
2023-05-25T21:58:24.206Z,101366.31
2023-05-25T22:00:51.800Z,101370.03
2023-05-25T22:03:24.683Z,101375.00
2023-05-25T22:05:52.697Z,101375.84
2023-05-25T22:08:20.702Z,101375.13
2023-05-25T22:10:48.450Z,101370.72
2023-05-25T22:13:16.111Z,101377.22
2023-05-25T22:15:43.999Z,101371.03
2023-05-25T22:18:11.823Z,101373.06
2023-05-25T22:20:41.600Z,101375.78
2023-05-25T22:23:09.592Z,101376.81
2023-05-25T22:25:37.216Z,101374.25
2023-05-25T22:28:04.841Z,101364.53
2023-05-25T22:30:32.456Z,101372.56
2023-05-25T22:33:00.191Z,101368.09
2023-05-25T22:35:27.804Z,101369.28
2023-05-25T22:37:55.413Z,101380.88
2023-05-25T22:40:23.047Z,101374.22
2023-05-25T22:42:50.781Z,101367.59
2023-05-25T22:45:18.387Z,101370.66
2023-05-25T22:47:46.194Z,101375.25
2023-05-25T22:50:13.853Z,101382.56
2023-05-25T22:52:41.436Z,101378.28
2023-05-25T22:55:09.001Z,101380.38
2023-05-25T22:57:36.609Z,101374.22
2023-05-25T23:00:04.825Z,101379.81
2023-05-25T23:02:32.524Z,101375.53
2023-05-25T23:05:00.126Z,101383.03
2023-05-25T23:07:27.809Z,101381.50
2023-05-25T23:09:55.401Z,101380.66
2023-05-25T23:12:23.430Z,101370.59
2023-05-25T23:14:51.818Z,101367.84
2023-05-25T23:17:19.448Z,101377.06
2023-05-25T23:19:47.004Z,101378.09
2023-05-25T23:22:14.786Z,101377.41
2023-05-25T23:24:42.366Z,101372.78
2023-05-25T23:27:10.175Z,101377.56
2023-05-25T23:29:37.911Z,101379.78
2023-05-25T23:32:05.772Z,101381.66
2023-05-25T23:34:33.381Z,101376.34
2023-05-25T23:37:01.472Z,101376.34
2023-05-25T23:39:29.099Z,101373.94
2023-05-25T23:41:56.672Z,101382.13
2023-05-25T23:44:24.280Z,101378.72
2023-05-25T23:46:52.106Z,101381.78
2023-05-25T23:49:19.727Z,101376.47
2023-05-25T23:51:47.360Z,101379.75
2023-05-25T23:54:14.946Z,101374.06
2023-05-25T23:56:42.535Z,101380.22
2023-05-25T23:59:12.145Z,101371.53
